Airfield :
LOGIN :

Register | Disclaimer

   EN    FR    IT 

 










Legend :    VFR   Marginal VFR   IFR   Intensive IFR   Very Intensive IFR
Visi :
Ceiling :
>= 8 km
>= 3000ft
5 to 8 km
1000 to 3000 ft
1500m to 5 km
500 to 1000 ft
800 to 1500m
200 to 500 ft
< 800m
< 200 ft
Symbols :   Thunderstorms  Fog  Heavy snow  Heavy precipitations  Wind > 20 kt
SIGMETs :     Misc.  Thunderstorms  Icing  Turbulence  Mountain Waves  Volcanic Ashes






- Airport Elevation : 3463 ft
- IATA code : ASR


LTAU - Erkilet AB

CURRENT METAR :
  • 200220Z 29003KT 9999 FEW015 SCT035 BKN080 M09/M12 Q1021 NOSIG

EXPIRED METARs :
  • 200150Z 00000KT 9999 FEW015 SCT035 BKN080 M09/M12 Q1021 NOSIG RMK RWY07 25002KT
  • 200120Z 27010KT 9999 FEW015 SCT035 BKN080 M08/M11 Q1021 NOSIG RMK RWY07 25002KT
  • 200050Z 30009KT 9999 FEW015 SCT035 BKN080 M08/M11 Q1021 NOSIG RMK RWY07 26008KT
  • 200020Z 29009KT 9999 FEW015 SCT035 BKN080 M07/M10 Q1021 NOSIG RMK RWY07 28005KT 250V320
  • 192350Z 26006KT 210V290 9999 FEW015 SCT035 BKN080 M07/M10 Q1020 NOSIG RMK RWY07 22004KT 200V260

TAF TAF LTAU
Valid from the 20 at 00:00 until the 21 at 00:00 UTC


192240Z 2000/2024 29009KT 9999 FEW015 SCT035 BKN090
TEMPO 2002/2006 -SN FEW015 BKN030 BKN090
BECMG 2016/2018 CAVOK



MET'MAP, your aeronautical weather chart ! - Copyright ORBIFLY December 2007 - Disclaimer

ORBIFLY MET'MAP TEAM :

Programming & Development : Alexandra Zaïnal
Concept & original design : Baudouin d'Aumeries
Assistance for programming : Marc-Olivier Méhu
Technical & hardware support : Manuel Goepfert

Contact : metmap@orbifly.com




SOURCES & CREDITS :

   NOAA